sensor_id;sensor_type;location;lat;lon;timestamp;pressure;altitude;pressure_sealevel;temperature;humidity
76864;BME280;65834;52.364;9.754;2023-02-12T00:01:54;102901.72;;;7.79;86.98
76864;BME280;65834;52.364;9.754;2023-02-12T00:04:24;102906.59;;;7.74;86.84
76864;BME280;65834;52.364;9.754;2023-02-12T00:06:53;102907.47;;;7.75;86.88
76864;BME280;65834;52.364;9.754;2023-02-12T00:09:22;102903.69;;;7.77;86.68
76864;BME280;65834;52.364;9.754;2023-02-12T00:11:51;102906.91;;;7.70;87.16
76864;BME280;65834;52.364;9.754;2023-02-12T00:14:21;102911.34;;;7.71;87.20
76864;BME280;65834;52.364;9.754;2023-02-12T00:16:52;102915.88;;;7.70;87.38
76864;BME280;65834;52.364;9.754;2023-02-12T00:19:22;102919.00;;;7.64;87.53
76864;BME280;65834;52.364;9.754;2023-02-12T00:21:51;102918.91;;;7.66;87.60
76864;BME280;65834;52.364;9.754;2023-02-12T00:24:20;102921.84;;;7.62;87.51
76864;BME280;65834;52.364;9.754;2023-02-12T00:26:49;102919.97;;;7.63;87.70
76864;BME280;65834;52.364;9.754;2023-02-12T00:29:19;102920.75;;;7.65;87.27
76864;BME280;65834;52.364;9.754;2023-02-12T00:31:48;102921.16;;;7.72;87.13
76864;BME280;65834;52.364;9.754;2023-02-12T00:34:20;102924.41;;;7.64;87.73
76864;BME280;65834;52.364;9.754;2023-02-12T00:36:49;102926.22;;;7.63;87.85
76864;BME280;65834;52.364;9.754;2023-02-12T00:39:18;102923.03;;;7.58;88.23
76864;BME280;65834;52.364;9.754;2023-02-12T00:41:47;102925.47;;;7.61;88.32
76864;BME280;65834;52.364;9.754;2023-02-12T00:44:17;102931.84;;;7.60;88.34
76864;BME280;65834;52.364;9.754;2023-02-12T00:46:46;102930.34;;;7.56;88.78
76864;BME280;65834;52.364;9.754;2023-02-12T00:49:15;102930.81;;;7.50;89.02
76864;BME280;65834;52.364;9.754;2023-02-12T00:51:48;102931.97;;;7.46;89.03
76864;BME280;65834;52.364;9.754;2023-02-12T00:54:17;102925.84;;;7.44;89.31
76864;BME280;65834;52.364;9.754;2023-02-12T00:56:46;102927.47;;;7.47;89.20
76864;BME280;65834;52.364;9.754;2023-02-12T00:59:16;102923.25;;;7.43;89.49
76864;BME280;65834;52.364;9.754;2023-02-12T01:01:45;102935.75;;;7.44;89.59
76864;BME280;65834;52.364;9.754;2023-02-12T01:04:15;102931.84;;;7.48;89.55
76864;BME280;65834;52.364;9.754;2023-02-12T01:06:48;102937.47;;;7.45;89.41
76864;BME280;65834;52.364;9.754;2023-02-12T01:09:17;102936.72;;;7.43;89.66
76864;BME280;65834;52.364;9.754;2023-02-12T01:11:47;102943.72;;;7.45;89.71
76864;BME280;65834;52.364;9.754;2023-02-12T01:14:16;102942.97;;;7.43;89.58
76864;BME280;65834;52.364;9.754;2023-02-12T01:16:45;102940.81;;;7.48;89.57
76864;BME280;65834;52.364;9.754;2023-02-12T01:19:16;102944.59;;;7.46;89.50
76864;BME280;65834;52.364;9.754;2023-02-12T01:21:48;102943.19;;;7.53;89.33
76864;BME280;65834;52.364;9.754;2023-02-12T01:24:17;102940.94;;;7.34;89.82
76864;BME280;65834;52.364;9.754;2023-02-12T01:26:47;102937.47;;;7.32;90.13
76864;BME280;65834;52.364;9.754;2023-02-12T01:29:16;102936.44;;;7.35;90.18
76864;BME280;65834;52.364;9.754;2023-02-12T01:31:45;102946.13;;;7.25;90.24
76864;BME280;65834;52.364;9.754;2023-02-12T01:34:16;102947.19;;;7.35;90.05
76864;BME280;65834;52.364;9.754;2023-02-12T01:36:47;102942.97;;;7.43;89.73
76864;BME280;65834;52.364;9.754;2023-02-12T01:39:17;102936.63;;;7.44;89.30
76864;BME280;65834;52.364;9.754;2023-02-12T01:41:46;102937.59;;;7.31;89.63
76864;BME280;65834;52.364;9.754;2023-02-12T01:44:16;102943.09;;;7.29;89.73
76864;BME280;65834;52.364;9.754;2023-02-12T01:46:47;102940.16;;;7.32;89.63
76864;BME280;65834;52.364;9.754;2023-02-12T01:49:18;102939.94;;;7.35;89.52
76864;BME280;65834;52.364;9.754;2023-02-12T01:51:52;102943.19;;;7.40;89.18
76864;BME280;65834;52.364;9.754;2023-02-12T01:54:23;102942.66;;;7.35;89.45
76864;BME280;65834;52.364;9.754;2023-02-12T01:56:54;102945.34;;;7.35;89.21
76864;BME280;65834;52.364;9.754;2023-02-12T01:59:23;102946.31;;;7.34;89.49
76864;BME280;65834;52.364;9.754;2023-02-12T02:01:52;102952.16;;;7.28;89.65
76864;BME280;65834;52.364;9.754;2023-02-12T02:04:23;102951.28;;;7.28;89.42
76864;BME280;65834;52.364;9.754;2023-02-12T02:06:58;102953.44;;;7.23;90.42
76864;BME280;65834;52.364;9.754;2023-02-12T02:09:28;102953.84;;;7.29;89.90
76864;BME280;65834;52.364;9.754;2023-02-12T02:12:00;102954.63;;;7.31;89.82
76864;BME280;65834;52.364;9.754;2023-02-12T02:14:42;102952.81;;;7.32;89.48
76864;BME280;65834;52.364;9.754;2023-02-12T02:17:15;102945.69;;;7.31;89.50
76864;BME280;65834;52.364;9.754;2023-02-12T02:22:38;102942.88;;;7.32;89.51
76864;BME280;65834;52.364;9.754;2023-02-12T02:25:14;102939.88;;;7.24;89.24
76864;BME280;65834;52.364;9.754;2023-02-12T02:27:50;102932.22;;;7.31;89.01
76864;BME280;65834;52.364;9.754;2023-02-12T02:30:33;102939.00;;;7.36;88.68
76864;BME280;65834;52.364;9.754;2023-02-12T02:33:23;102939.94;;;7.35;88.48
76864;BME280;65834;52.364;9.754;2023-02-12T02:35:58;102942.88;;;7.32;88.56
76864;BME280;65834;52.364;9.754;2023-02-12T02:38:30;102940.72;;;7.37;88.42
76864;BME280;65834;52.364;9.754;2023-02-12T02:41:03;102945.34;;;7.35;88.14
76864;BME280;65834;52.364;9.754;2023-02-12T02:43:35;102933.81;;;7.33;88.09
76864;BME280;65834;52.364;9.754;2023-02-12T02:46:10;102935.44;;;7.36;88.06
76864;BME280;65834;52.364;9.754;2023-02-12T02:48:43;102934.19;;;7.29;88.12
76864;BME280;65834;52.364;9.754;2023-02-12T02:51:15;102929.75;;;7.28;88.24
76864;BME280;65834;52.364;9.754;2023-02-12T02:53:47;102933.50;;;7.38;87.76
76864;BME280;65834;52.364;9.754;2023-02-12T02:56:19;102937.91;;;7.26;88.04
76864;BME280;65834;52.364;9.754;2023-02-12T02:58:52;102936.09;;;7.27;88.46
76864;BME280;65834;52.364;9.754;2023-02-12T03:01:25;102938.78;;;7.27;88.58
76864;BME280;65834;52.364;9.754;2023-02-12T03:03:58;102945.25;;;7.24;88.68
76864;BME280;65834;52.364;9.754;2023-02-12T03:06:31;102937.09;;;7.26;88.64
76864;BME280;65834;52.364;9.754;2023-02-12T03:09:02;102942.25;;;7.29;88.53
76864;BME280;65834;52.364;9.754;2023-02-12T03:11:32;102939.13;;;7.22;88.55
76864;BME280;65834;52.364;9.754;2023-02-12T03:14:03;102935.44;;;7.23;88.80
76864;BME280;65834;52.364;9.754;2023-02-12T03:16:38;102943.66;;;7.22;88.76
76864;BME280;65834;52.364;9.754;2023-02-12T03:19:09;102957.63;;;7.27;88.48
76864;BME280;65834;52.364;9.754;2023-02-12T03:21:40;102953.03;;;7.16;88.75
76864;BME280;65834;52.364;9.754;2023-02-12T03:24:12;102951.94;;;7.19;88.70
76864;BME280;65834;52.364;9.754;2023-02-12T03:26:45;102956.44;;;7.18;88.74
76864;BME280;65834;52.364;9.754;2023-02-12T03:29:15;102959.88;;;7.20;88.54
76864;BME280;65834;52.364;9.754;2023-02-12T03:31:49;102961.97;;;7.17;88.50
76864;BME280;65834;52.364;9.754;2023-02-12T03:34:23;102969.69;;;7.08;88.69
76864;BME280;65834;52.364;9.754;2023-02-12T03:36:55;102971.22;;;7.13;88.43
76864;BME280;65834;52.364;9.754;2023-02-12T03:39:34;102974.13;;;7.09;88.50
76864;BME280;65834;52.364;9.754;2023-02-12T03:42:05;102976.25;;;7.04;88.78
76864;BME280;65834;52.364;9.754;2023-02-12T03:44:41;102981.31;;;7.09;88.62
76864;BME280;65834;52.364;9.754;2023-02-12T03:47:18;102988.09;;;7.02;88.70
76864;BME280;65834;52.364;9.754;2023-02-12T03:49:50;102990.56;;;7.05;88.93
76864;BME280;65834;52.364;9.754;2023-02-12T03:52:21;102993.16;;;7.06;88.38
76864;BME280;65834;52.364;9.754;2023-02-12T03:54:50;102993.03;;;7.08;88.36
76864;BME280;65834;52.364;9.754;2023-02-12T03:57:20;102989.47;;;7.07;88.52
76864;BME280;65834;52.364;9.754;2023-02-12T03:59:56;102999.06;;;7.12;88.40
76864;BME280;65834;52.364;9.754;2023-02-12T04:02:28;103003.38;;;7.01;88.78
76864;BME280;65834;52.364;9.754;2023-02-12T04:05:02;103008.66;;;7.03;88.64
76864;BME280;65834;52.364;9.754;2023-02-12T04:07:32;103008.22;;;6.96;88.95
76864;BME280;65834;52.364;9.754;2023-02-12T04:10:01;103015.84;;;7.02;88.92
76864;BME280;65834;52.364;9.754;2023-02-12T04:12:37;103006.06;;;7.01;88.77
76864;BME280;65834;52.364;9.754;2023-02-12T04:15:11;103009.28;;;6.94;89.04
76864;BME280;65834;52.364;9.754;2023-02-12T04:17:49;103014.25;;;7.00;88.96
76864;BME280;65834;52.364;9.754;2023-02-12T04:20:21;103019.63;;;7.00;88.90
76864;BME280;65834;52.364;9.754;2023-02-12T04:22:53;103020.78;;;6.96;89.18
76864;BME280;65834;52.364;9.754;2023-02-12T04:25:27;103023.47;;;6.96;89.05
76864;BME280;65834;52.364;9.754;2023-02-12T04:28:03;103027.69;;;7.00;88.77
76864;BME280;65834;52.364;9.754;2023-02-12T04:30:36;103029.72;;;6.96;88.78
76864;BME280;65834;52.364;9.754;2023-02-12T04:33:09;103033.16;;;6.98;88.78
76864;BME280;65834;52.364;9.754;2023-02-12T04:35:42;103034.25;;;6.96;88.87
76864;BME280;65834;52.364;9.754;2023-02-12T04:38:16;103037.28;;;7.04;88.54
76864;BME280;65834;52.364;9.754;2023-02-12T04:40:47;103033.38;;;6.95;88.83
76864;BME280;65834;52.364;9.754;2023-02-12T04:43:25;103034.03;;;6.99;88.73
76864;BME280;65834;52.364;9.754;2023-02-12T04:45:54;103036.94;;;6.96;88.68
76864;BME280;65834;52.364;9.754;2023-02-12T04:48:26;103037.81;;;6.96;89.05
76864;BME280;65834;52.364;9.754;2023-02-12T04:50:56;103036.84;;;6.97;88.85
76864;BME280;65834;52.364;9.754;2023-02-12T04:53:25;103034.25;;;6.96;88.98
76864;BME280;65834;52.364;9.754;2023-02-12T04:55:54;103031.75;;;6.93;89.05
76864;BME280;65834;52.364;9.754;2023-02-12T04:58:24;103032.63;;;6.93;89.13
76864;BME280;65834;52.364;9.754;2023-02-12T05:00:53;103028.75;;;6.85;89.21
76864;BME280;65834;52.364;9.754;2023-02-12T05:03:22;103034.91;;;6.99;89.22
76864;BME280;65834;52.364;9.754;2023-02-12T05:05:54;103026.63;;;7.02;88.75
76864;BME280;65834;52.364;9.754;2023-02-12T05:08:23;103028.34;;;7.03;88.60
76864;BME280;65834;52.364;9.754;2023-02-12T05:10:52;103036.50;;;7.02;88.67
76864;BME280;65834;52.364;9.754;2023-02-12T05:13:21;103026.41;;;7.05;88.68
76864;BME280;65834;52.364;9.754;2023-02-12T05:15:51;103035.03;;;6.98;88.80
76864;BME280;65834;52.364;9.754;2023-02-12T05:18:20;103038.22;;;6.90;89.13
76864;BME280;65834;52.364;9.754;2023-02-12T05:20:56;103041.44;;;6.95;89.06
76864;BME280;65834;52.364;9.754;2023-02-12T05:23:26;103041.56;;;6.94;89.18
76864;BME280;65834;52.364;9.754;2023-02-12T05:25:56;103036.72;;;6.99;88.88
76864;BME280;65834;52.364;9.754;2023-02-12T05:28:26;103041.81;;;7.03;88.60
76864;BME280;65834;52.364;9.754;2023-02-12T05:30:58;103035.97;;;6.97;88.89
76864;BME280;65834;52.364;9.754;2023-02-12T05:33:27;103041.38;;;6.97;88.96
76864;BME280;65834;52.364;9.754;2023-02-12T05:36:04;103037.81;;;6.96;88.79
76864;BME280;65834;52.364;9.754;2023-02-12T05:38:34;103040.91;;;6.90;89.03
76864;BME280;65834;52.364;9.754;2023-02-12T05:41:04;103047.69;;;6.96;88.84
76864;BME280;65834;52.364;9.754;2023-02-12T05:43:33;103048.22;;;6.88;89.36
76864;BME280;65834;52.364;9.754;2023-02-12T05:46:03;103041.56;;;6.94;89.01
76864;BME280;65834;52.364;9.754;2023-02-12T05:48:33;103052.00;;;6.98;88.70
76864;BME280;65834;52.364;9.754;2023-02-12T05:51:06;103047.81;;;6.94;88.72
76864;BME280;65834;52.364;9.754;2023-02-12T05:53:36;103044.91;;;6.97;88.65
76864;BME280;65834;52.364;9.754;2023-02-12T05:56:09;103046.09;;;6.93;88.59
76864;BME280;65834;52.364;9.754;2023-02-12T05:58:40;103049.84;;;6.91;88.71
76864;BME280;65834;52.364;9.754;2023-02-12T06:01:10;103057.06;;;6.90;88.78
76864;BME280;65834;52.364;9.754;2023-02-12T06:03:40;103058.88;;;6.90;88.69
76864;BME280;65834;52.364;9.754;2023-02-12T06:06:12;103052.22;;;6.95;88.62
76864;BME280;65834;52.364;9.754;2023-02-12T06:08:41;103059.53;;;6.93;88.43
76864;BME280;65834;52.364;9.754;2023-02-12T06:11:12;103054.28;;;6.92;88.69
76864;BME280;65834;52.364;9.754;2023-02-12T06:13:41;103055.22;;;6.91;88.66
76864;BME280;65834;52.364;9.754;2023-02-12T06:16:18;103053.06;;;6.96;88.47
76864;BME280;65834;52.364;9.754;2023-02-12T06:18:48;103057.81;;;6.92;88.61
76864;BME280;65834;52.364;9.754;2023-02-12T06:21:21;103062.34;;;6.92;88.65
76864;BME280;65834;52.364;9.754;2023-02-12T06:23:50;103055.97;;;6.93;88.60
76864;BME280;65834;52.364;9.754;2023-02-12T06:26:20;103061.34;;;6.93;88.64
76864;BME280;65834;52.364;9.754;2023-02-12T06:28:49;103067.72;;;6.92;88.72
76864;BME280;65834;52.364;9.754;2023-02-12T06:31:20;103067.72;;;6.92;88.87
76864;BME280;65834;52.364;9.754;2023-02-12T06:33:49;103066.44;;;6.97;88.57
76864;BME280;65834;52.364;9.754;2023-02-12T06:36:22;103059.75;;;6.90;88.75
76864;BME280;65834;52.364;9.754;2023-02-12T06:38:51;103062.69;;;7.00;88.31
76864;BME280;65834;52.364;9.754;2023-02-12T06:41:20;103061.16;;;6.96;88.44
76864;BME280;65834;52.364;9.754;2023-02-12T06:43:50;103070.50;;;6.90;88.54
76864;BME280;65834;52.364;9.754;2023-02-12T06:46:19;103070.84;;;6.98;88.64
76864;BME280;65834;52.364;9.754;2023-02-12T06:48:51;103071.16;;;6.94;88.57
76864;BME280;65834;52.364;9.754;2023-02-12T06:51:23;103078.63;;;7.03;88.29
76864;BME280;65834;52.364;9.754;2023-02-12T06:53:53;103078.50;;;7.04;88.33
76864;BME280;65834;52.364;9.754;2023-02-12T06:56:23;103086.34;;;7.07;88.23
76864;BME280;65834;52.364;9.754;2023-02-12T06:58:53;103096.38;;;7.05;88.45
76864;BME280;65834;52.364;9.754;2023-02-12T07:01:24;103102.72;;;7.04;88.65
76864;BME280;65834;52.364;9.754;2023-02-12T07:03:54;103099.94;;;7.06;88.74
76864;BME280;65834;52.364;9.754;2023-02-12T07:06:27;103103.56;;;7.05;89.00
76864;BME280;65834;52.364;9.754;2023-02-12T07:08:56;103099.47;;;6.99;89.11
76864;BME280;65834;52.364;9.754;2023-02-12T07:11:27;103099.94;;;7.06;89.15
76864;BME280;65834;52.364;9.754;2023-02-12T07:13:56;103103.25;;;6.97;89.30
76864;BME280;65834;52.364;9.754;2023-02-12T07:16:26;103103.28;;;7.09;89.22
76864;BME280;65834;52.364;9.754;2023-02-12T07:18:55;103109.97;;;7.17;88.95
76864;BME280;65834;52.364;9.754;2023-02-12T07:21:27;103107.38;;;7.15;88.71
76864;BME280;65834;52.364;9.754;2023-02-12T07:23:57;103109.53;;;7.10;89.14
76864;BME280;65834;52.364;9.754;2023-02-12T07:26:26;103112.75;;;7.15;89.21
76864;BME280;65834;52.364;9.754;2023-02-12T07:28:56;103111.38;;;7.22;88.87
76864;BME280;65834;52.364;9.754;2023-02-12T07:31:26;103113.28;;;7.20;88.60
76864;BME280;65834;52.364;9.754;2023-02-12T07:33:55;103120.16;;;7.12;89.05
76864;BME280;65834;52.364;9.754;2023-02-12T07:36:28;103115.78;;;7.23;89.02
76864;BME280;65834;52.364;9.754;2023-02-12T07:38:58;103118.75;;;7.06;89.23
76864;BME280;65834;52.364;9.754;2023-02-12T07:41:28;103112.56;;;7.18;88.88
76864;BME280;65834;52.364;9.754;2023-02-12T07:43:58;103114.19;;;7.33;88.56
76864;BME280;65834;52.364;9.754;2023-02-12T07:46:29;103114.34;;;7.44;88.05
76864;BME280;65834;52.364;9.754;2023-02-12T07:48:59;103122.28;;;7.46;87.58
76864;BME280;65834;52.364;9.754;2023-02-12T07:51:32;103110.97;;;7.28;88.10
76864;BME280;65834;52.364;9.754;2023-02-12T07:54:02;103117.34;;;7.40;87.78
76864;BME280;65834;52.364;9.754;2023-02-12T07:56:33;103117.00;;;7.57;87.18
76864;BME280;65834;52.364;9.754;2023-02-12T07:59:04;103111.44;;;7.47;87.11
76864;BME280;65834;52.364;9.754;2023-02-12T08:01:35;103119.28;;;7.63;86.66
76864;BME280;65834;52.364;9.754;2023-02-12T08:04:05;103106.69;;;7.63;86.67
76864;BME280;65834;52.364;9.754;2023-02-12T08:06:38;103120.16;;;7.63;86.80
76864;BME280;65834;52.364;9.754;2023-02-12T08:09:08;103125.97;;;7.57;87.26
76864;BME280;65834;52.364;9.754;2023-02-12T08:11:38;103118.09;;;7.54;87.54
76864;BME280;65834;52.364;9.754;2023-02-12T08:14:08;103127.25;;;7.64;87.13
76864;BME280;65834;52.364;9.754;2023-02-12T08:16:38;103126.41;;;7.64;87.21
76864;BME280;65834;52.364;9.754;2023-02-12T08:19:08;103121.66;;;7.68;87.06
76864;BME280;65834;52.364;9.754;2023-02-12T08:21:50;103118.53;;;7.61;87.04
76864;BME280;65834;52.364;9.754;2023-02-12T08:24:20;103122.31;;;7.84;86.85
76864;BME280;65834;52.364;9.754;2023-02-12T08:26:50;103128.88;;;7.67;87.13
76864;BME280;65834;52.364;9.754;2023-02-12T08:29:20;103136.66;;;7.84;87.00
76864;BME280;65834;52.364;9.754;2023-02-12T08:31:50;103136.63;;;7.97;86.19
76864;BME280;65834;52.364;9.754;2023-02-12T08:34:24;103137.63;;;7.83;86.81
76864;BME280;65834;52.364;9.754;2023-02-12T08:36:56;103146.78;;;7.93;85.98
76864;BME280;65834;52.364;9.754;2023-02-12T08:39:26;103147.53;;;7.83;86.58
76864;BME280;65834;52.364;9.754;2023-02-12T08:41:56;103145.78;;;8.07;86.15
76864;BME280;65834;52.364;9.754;2023-02-12T08:44:26;103151.81;;;8.10;85.63
76864;BME280;65834;52.364;9.754;2023-02-12T08:46:55;103141.47;;;8.17;85.12
76864;BME280;65834;52.364;9.754;2023-02-12T08:49:25;103149.22;;;8.22;85.05
76864;BME280;65834;52.364;9.754;2023-02-12T08:51:58;103157.00;;;8.39;84.36
76864;BME280;65834;52.364;9.754;2023-02-12T08:54:28;103157.34;;;8.09;84.88
76864;BME280;65834;52.364;9.754;2023-02-12T08:56:58;103157.97;;;8.12;84.98
76864;BME280;65834;52.364;9.754;2023-02-12T08:59:28;103160.44;;;8.15;85.10
76864;BME280;65834;52.364;9.754;2023-02-12T09:01:57;103158.81;;;8.26;84.74
76864;BME280;65834;52.364;9.754;2023-02-12T09:04:27;103161.00;;;8.46;84.01
76864;BME280;65834;52.364;9.754;2023-02-12T09:06:59;103167.59;;;8.29;84.36
76864;BME280;65834;52.364;9.754;2023-02-12T09:09:28;103172.66;;;8.08;84.71
76864;BME280;65834;52.364;9.754;2023-02-12T09:11:58;103176.72;;;8.14;84.62
76864;BME280;65834;52.364;9.754;2023-02-12T09:14:27;103178.13;;;8.19;84.22
76864;BME280;65834;52.364;9.754;2023-02-12T09:16:56;103183.94;;;8.26;84.16
76864;BME280;65834;52.364;9.754;2023-02-12T09:19:26;103185.25;;;8.46;83.60
76864;BME280;65834;52.364;9.754;2023-02-12T09:21:55;103184.25;;;8.47;83.38
76864;BME280;65834;52.364;9.754;2023-02-12T09:24:27;103185.06;;;8.36;83.33
76864;BME280;65834;52.364;9.754;2023-02-12T09:26:57;103181.47;;;8.48;83.18
76864;BME280;65834;52.364;9.754;2023-02-12T09:29:26;103186.03;;;8.71;82.43
76864;BME280;65834;52.364;9.754;2023-02-12T09:31:56;103185.56;;;8.54;82.83
76864;BME280;65834;52.364;9.754;2023-02-12T09:34:25;103190.09;;;8.53;82.96
76864;BME280;65834;52.364;9.754;2023-02-12T09:36:54;103189.84;;;8.56;82.85
76864;BME280;65834;52.364;9.754;2023-02-12T09:39:23;103195.69;;;8.50;82.94
76864;BME280;65834;52.364;9.754;2023-02-12T09:44:52;103199.47;;;8.48;83.64
76864;BME280;65834;52.364;9.754;2023-02-12T09:47:29;103194.09;;;8.35;83.93
76864;BME280;65834;52.364;9.754;2023-02-12T09:52:45;103204.22;;;8.57;83.37
76864;BME280;65834;52.364;9.754;2023-02-12T09:55:15;103203.06;;;8.36;83.93
76864;BME280;65834;52.364;9.754;2023-02-12T09:57:46;103200.72;;;8.67;83.13
76864;BME280;65834;52.364;9.754;2023-02-12T10:02:52;103209.66;;;8.81;82.37
76864;BME280;65834;52.364;9.754;2023-02-12T10:05:22;103209.19;;;8.87;82.10
76864;BME280;65834;52.364;9.754;2023-02-12T10:07:57;103207.72;;;8.83;81.42
76864;BME280;65834;52.364;9.754;2023-02-12T10:10:33;103207.41;;;8.75;81.99
76864;BME280;65834;52.364;9.754;2023-02-12T10:13:09;103213.50;;;8.53;82.68
76864;BME280;65834;52.364;9.754;2023-02-12T10:15:43;103218.59;;;8.32;83.11
76864;BME280;65834;52.364;9.754;2023-02-12T10:18:33;103214.59;;;8.38;83.23
76864;BME280;65834;52.364;9.754;2023-02-12T10:21:19;103218.00;;;8.52;83.07
76864;BME280;65834;52.364;9.754;2023-02-12T10:23:56;103224.44;;;8.88;81.84
76864;BME280;65834;52.364;9.754;2023-02-12T10:26:29;103222.31;;;8.67;81.97
76864;BME280;65834;52.364;9.754;2023-02-12T10:29:00;103221.47;;;8.67;82.08
76864;BME280;65834;52.364;9.754;2023-02-12T10:31:35;103221.03;;;8.73;81.60
76864;BME280;65834;52.364;9.754;2023-02-12T10:34:10;103219.59;;;8.67;82.14
76864;BME280;65834;52.364;9.754;2023-02-12T10:36:42;103220.59;;;8.66;81.70
76864;BME280;65834;52.364;9.754;2023-02-12T10:39:13;103215.94;;;8.68;81.73
76864;BME280;65834;52.364;9.754;2023-02-12T10:41:45;103219.94;;;8.76;81.43
76864;BME280;65834;52.364;9.754;2023-02-12T10:44:15;103214.19;;;8.80;81.62
76864;BME280;65834;52.364;9.754;2023-02-12T10:46:44;103216.88;;;8.80;81.00
76864;BME280;65834;52.364;9.754;2023-02-12T10:49:17;103210.78;;;8.65;80.74
76864;BME280;65834;52.364;9.754;2023-02-12T10:51:50;103221.09;;;9.08;80.34
76864;BME280;65834;52.364;9.754;2023-02-12T10:54:35;103217.16;;;9.24;79.72
76864;BME280;65834;52.364;9.754;2023-02-12T10:57:07;103219.22;;;9.21;78.92
76864;BME280;65834;52.364;9.754;2023-02-12T10:59:38;103215.31;;;9.25;79.33
76864;BME280;65834;52.364;9.754;2023-02-12T11:02:24;103211.59;;;9.15;79.44
76864;BME280;65834;52.364;9.754;2023-02-12T11:04:57;103220.97;;;9.22;79.05
76864;BME280;65834;52.364;9.754;2023-02-12T11:07:27;103217.34;;;9.34;79.08
76864;BME280;65834;52.364;9.754;2023-02-12T11:09:56;103211.56;;;9.39;78.89
76864;BME280;65834;52.364;9.754;2023-02-12T11:12:28;103207.59;;;9.55;78.42
76864;BME280;65834;52.364;9.754;2023-02-12T11:14:59;103209.13;;;9.70;78.32
76864;BME280;65834;52.364;9.754;2023-02-12T11:17:30;103207.31;;;9.47;78.08
76864;BME280;65834;52.364;9.754;2023-02-12T11:20:19;103209.31;;;9.56;78.01
76864;BME280;65834;52.364;9.754;2023-02-12T11:22:51;103206.94;;;9.41;78.93
76864;BME280;65834;52.364;9.754;2023-02-12T11:25:21;103201.78;;;9.49;78.23
76864;BME280;65834;52.364;9.754;2023-02-12T11:27:57;103195.50;;;9.72;77.46
76864;BME280;65834;52.364;9.754;2023-02-12T11:30:27;103196.66;;;9.57;78.26
76864;BME280;65834;52.364;9.754;2023-02-12T11:35:50;103197.50;;;9.92;77.29
76864;BME280;65834;52.364;9.754;2023-02-12T11:38:22;103191.69;;;10.20;76.13
76864;BME280;65834;52.364;9.754;2023-02-12T11:40:53;103195.28;;;9.97;76.54
76864;BME280;65834;52.364;9.754;2023-02-12T11:43:23;103187.66;;;9.80;76.51
76864;BME280;65834;52.364;9.754;2023-02-12T11:45:54;103194.06;;;9.90;76.27
76864;BME280;65834;52.364;9.754;2023-02-12T11:48:24;103192.97;;;10.04;76.53
76864;BME280;65834;52.364;9.754;2023-02-12T11:50:58;103189.63;;;10.00;75.67
76864;BME280;65834;52.364;9.754;2023-02-12T11:53:29;103193.94;;;9.92;76.91
76864;BME280;65834;52.364;9.754;2023-02-12T11:55:59;103185.38;;;10.09;76.29
76864;BME280;65834;52.364;9.754;2023-02-12T11:58:30;103188.34;;;10.17;75.89
76864;BME280;65834;52.364;9.754;2023-02-12T12:01:01;103189.88;;;9.97;75.91
76864;BME280;65834;52.364;9.754;2023-02-12T12:03:33;103188.53;;;9.92;76.30
76864;BME280;65834;52.364;9.754;2023-02-12T12:06:11;103175.63;;;9.84;76.82
76864;BME280;65834;52.364;9.754;2023-02-12T12:08:46;103174.38;;;9.88;76.63
76864;BME280;65834;52.364;9.754;2023-02-12T12:11:17;103179.53;;;9.80;76.57
76864;BME280;65834;52.364;9.754;2023-02-12T12:13:48;103174.13;;;9.80;76.59
76864;BME280;65834;52.364;9.754;2023-02-12T12:16:19;103173.63;;;9.75;77.22
76864;BME280;65834;52.364;9.754;2023-02-12T12:19:03;103172.63;;;9.65;77.43
76864;BME280;65834;52.364;9.754;2023-02-12T12:21:51;103168.72;;;9.91;76.99
76864;BME280;65834;52.364;9.754;2023-02-12T12:24:25;103162.19;;;9.71;76.74
76864;BME280;65834;52.364;9.754;2023-02-12T12:26:59;103160.38;;;9.83;76.18
76864;BME280;65834;52.364;9.754;2023-02-12T12:29:32;103176.34;;;9.97;75.93
76864;BME280;65834;52.364;9.754;2023-02-12T12:32:09;103173.03;;;9.94;76.39
76864;BME280;65834;52.364;9.754;2023-02-12T12:34:40;103167.72;;;9.70;76.86
76864;BME280;65834;52.364;9.754;2023-02-12T12:37:17;103165.78;;;9.83;76.85
76864;BME280;65834;52.364;9.754;2023-02-12T12:39:54;103166.59;;;9.72;77.02
76864;BME280;65834;52.364;9.754;2023-02-12T12:45:19;103161.88;;;9.41;78.53
76864;BME280;65834;52.364;9.754;2023-02-12T12:48:01;103149.84;;;9.45;78.45
76864;BME280;65834;52.364;9.754;2023-02-12T12:50:40;103152.59;;;9.33;79.10
76864;BME280;65834;52.364;9.754;2023-02-12T12:53:17;103150.84;;;9.44;79.02
76864;BME280;65834;52.364;9.754;2023-02-12T12:58:56;103151.97;;;9.53;78.58
76864;BME280;65834;52.364;9.754;2023-02-12T13:01:35;103147.03;;;9.47;78.93
76864;BME280;65834;52.364;9.754;2023-02-12T13:04:19;103147.66;;;9.50;78.79
76864;BME280;65834;52.364;9.754;2023-02-12T13:07:09;103148.53;;;9.62;78.03
76864;BME280;65834;52.364;9.754;2023-02-12T13:09:48;103140.81;;;9.68;77.83
76864;BME280;65834;52.364;9.754;2023-02-12T13:12:32;103133.00;;;9.42;78.58
76864;BME280;65834;52.364;9.754;2023-02-12T13:15:04;103134.88;;;9.41;78.75
76864;BME280;65834;52.364;9.754;2023-02-12T13:17:38;103133.16;;;9.51;78.55
76864;BME280;65834;52.364;9.754;2023-02-12T13:20:12;103127.50;;;9.43;78.78
76864;BME280;65834;52.364;9.754;2023-02-12T13:22:47;103134.50;;;9.46;78.61
76864;BME280;65834;52.364;9.754;2023-02-12T13:25:25;103125.97;;;9.28;79.00
76864;BME280;65834;52.364;9.754;2023-02-12T13:27:57;103129.25;;;9.20;79.72
76864;BME280;65834;52.364;9.754;2023-02-12T13:30:28;103128.78;;;8.92;80.40
76864;BME280;65834;52.364;9.754;2023-02-12T13:33:04;103130.31;;;9.07;80.09
76864;BME280;65834;52.364;9.754;2023-02-12T13:35:36;103134.94;;;9.05;80.06
76864;BME280;65834;52.364;9.754;2023-02-12T13:38:07;103129.38;;;8.95;80.22
76864;BME280;65834;52.364;9.754;2023-02-12T13:40:43;103124.53;;;9.11;80.06
76864;BME280;65834;52.364;9.754;2023-02-12T13:43:19;103125.94;;;8.93;80.28
76864;BME280;65834;52.364;9.754;2023-02-12T13:45:57;103125.31;;;8.90;80.63